Time;durP1;ratioP1;P1;durP2;ratioP2;P2;SDS_P1;SDS_P2;PMS_P1;PMS_P2;Temp;Humidity;BMP_temperature;BMP_pressure;BME280_temperature;BME280_humidity;BME280_pressure;Samples;Min_cycle;Max_cycle;Signal;HPM_P1;HPM_P2
2023/06/01 00:02:20;;;;;;;6.10;3.63;;;;;;;13.50;64.92;98771.78;4995667;28;20269;-62
2023/06/01 00:04:48;;;;;;;9.73;3.50;;;;;;;13.53;66.76;98771.44;4995188;28;20230;-62
2023/06/01 00:07:14;;;;;;;6.13;3.60;;;;;;;13.47;66.33;98772.13;4996901;28;20238;-62
2023/06/01 00:09:41;;;;;;;6.30;3.50;;;;;;;13.50;66.97;98777.03;4997935;28;20290;-62
2023/06/01 00:12:09;;;;;;;7.97;3.13;;;;;;;13.48;67.43;98779.00;4998771;28;20295;-62
2023/06/01 00:14:41;;;;;;;5.37;3.40;;;;;;;13.48;66.50;98774.56;4995407;28;20230;-62
2023/06/01 00:17:07;;;;;;;5.07;3.23;;;;;;;13.45;65.82;98779.31;4998783;28;20230;-62
2023/06/01 00:20:01;;;;;;;9.67;3.80;;;;;;;13.47;68.73;98767.66;4993405;28;20242;-62
2023/06/01 00:22:28;;;;;;;6.37;3.60;;;;;;;13.47;67.53;98766.88;4992095;28;20635;-61
2023/06/01 00:24:55;;;;;;;10.50;3.37;;;;;;;13.39;67.93;98762.41;4997578;28;20220;-62
2023/06/01 00:27:22;;;;;;;7.80;3.27;;;;;;;13.39;67.58;98760.63;4997437;28;20230;-62
2023/06/01 00:29:48;;;;;;;6.70;3.30;;;;;;;13.33;67.80;98757.81;4996841;28;20585;-62
2023/06/01 00:32:15;;;;;;;5.90;3.00;;;;;;;13.26;68.39;98755.84;4999826;28;20247;-62
2023/06/01 00:34:42;;;;;;;5.43;3.57;;;;;;;13.34;68.28;98762.91;4998027;28;20286;-62
2023/06/01 00:37:10;;;;;;;7.03;3.23;;;;;;;13.25;67.98;98762.09;4997373;28;20236;-62
2023/06/01 00:39:42;;;;;;;11.53;3.90;;;;;;;13.33;69.04;98761.28;4998053;28;20224;-62
2023/06/01 00:42:08;;;;;;;5.33;3.40;;;;;;;13.33;69.03;98757.81;5002227;28;20249;-62
2023/06/01 00:44:41;;;;;;;6.53;3.50;;;;;;;13.23;67.86;98756.22;4995640;28;20239;-62
2023/06/01 00:47:08;;;;;;;5.80;3.40;;;;;;;13.19;68.52;98754.91;4997995;28;20601;-62
2023/06/01 00:49:59;;;;;;;6.77;3.60;;;;;;;13.23;67.43;98750.97;4998324;28;20686;-62
2023/06/01 00:52:27;;;;;;;6.63;3.60;;;;;;;13.22;66.96;98756.38;4998991;28;20246;-62
2023/06/01 00:54:54;;;;;;;7.33;3.53;;;;;;;13.23;66.07;98748.34;5013457;28;20300;-62
2023/06/01 00:57:21;;;;;;;6.47;3.50;;;;;;;13.35;66.32;98753.22;5004887;28;20231;-62
2023/06/01 00:59:48;;;;;;;6.43;3.40;;;;;;;13.29;66.03;98745.03;4998287;28;20258;-63
2023/06/01 01:02:15;;;;;;;6.50;3.30;;;;;;;13.34;66.09;98744.56;5016688;28;20303;-62
2023/06/01 01:04:42;;;;;;;12.93;4.00;;;;;;;13.38;66.54;98738.00;4998894;28;20247;-62
2023/06/01 01:07:20;;;;;;;5.17;3.13;;;;;;;13.38;65.97;98740.63;4997692;28;20227;-62
2023/06/01 01:09:57;;;;;;;6.27;3.60;;;;;;;13.32;65.86;98740.47;5017680;28;20231;-62
2023/06/01 01:12:31;;;;;;;7.60;3.87;;;;;;;13.32;67.52;98741.28;4996235;28;20295;-62
2023/06/01 01:15:08;;;;;;;10.63;3.57;;;;;;;13.43;66.76;98738.34;4995984;28;20228;-62
2023/06/01 01:17:45;;;;;;;6.00;3.63;;;;;;;13.38;64.95;98739.78;5000085;28;20233;-62
2023/06/01 01:20:15;;;;;;;5.80;3.43;;;;;;;13.38;65.80;98743.25;5004382;28;20769;-62
2023/06/01 01:23:11;;;;;;;5.20;2.87;;;;;;;13.34;64.36;98731.47;4999487;28;20243;-62
2023/06/01 01:26:09;;;;;;;6.37;3.23;;;;;;;13.42;65.53;98735.88;4992368;28;20235;-62
2023/06/01 01:28:42;;;;;;;6.97;2.97;;;;;;;13.41;63.69;98731.59;4991447;28;20228;-62
2023/06/01 01:31:11;;;;;;;7.40;3.20;;;;;;;13.41;63.98;98732.47;4998899;28;20643;-62
2023/06/01 01:33:40;;;;;;;14.13;3.83;;;;;;;13.47;63.80;98730.16;4994622;28;20235;-62
2023/06/01 01:36:09;;;;;;;7.30;3.63;;;;;;;13.49;64.52;98729.00;4996782;28;20777;-62
2023/06/01 01:38:37;;;;;;;7.77;3.60;;;;;;;13.57;64.81;98736.03;5000829;28;20718;-62
2023/06/01 01:41:03;;;;;;;6.67;3.70;;;;;;;13.61;63.28;98728.66;5002961;28;20258;-62
2023/06/01 01:43:30;;;;;;;5.90;3.60;;;;;;;13.58;63.17;98729.81;4995003;28;20288;-62
2023/06/01 01:46:07;;;;;;;7.03;4.23;;;;;;;13.61;63.29;98723.41;4999206;28;20243;-62
2023/06/01 01:48:40;;;;;;;5.57;4.07;;;;;;;13.73;63.95;98727.31;5002146;28;20582;-62
2023/06/01 01:51:14;;;;;;;6.47;3.93;;;;;;;13.70;63.29;98720.59;5002649;28;20243;-63
2023/06/01 01:53:44;;;;;;;7.13;3.50;;;;;;;13.77;64.71;98725.97;4992443;28;20231;-63
2023/06/01 01:56:14;;;;;;;10.40;3.77;;;;;;;13.73;64.59;98720.25;5004388;28;20682;-62
2023/06/01 01:58:43;;;;;;;10.73;4.20;;;;;;;13.83;65.64;98721.84;4993885;28;20261;-62
2023/06/01 02:01:12;;;;;;;7.07;3.47;;;;;;;13.90;63.03;98724.63;5004015;28;20235;-62
2023/06/01 02:03:39;;;;;;;6.73;3.57;;;;;;;13.88;62.41;98716.91;5000619;28;20267;-62
2023/06/01 02:06:06;;;;;;;6.03;3.73;;;;;;;13.95;63.77;98723.13;4999089;28;20238;-62
2023/06/01 02:08:32;;;;;;;6.27;3.53;;;;;;;13.92;62.95;98718.19;5001002;28;20580;-62
2023/06/01 02:10:59;;;;;;;5.20;3.60;;;;;;;13.92;62.51;98718.19;5011803;28;20237;-62
2023/06/01 02:13:26;;;;;;;6.67;3.80;;;;;;;14.07;61.90;98723.56;4987025;28;20250;-62
2023/06/01 02:15:52;;;;;;;7.17;3.57;;;;;;;14.12;62.11;98717.78;4998345;28;20254;-62
2023/06/01 02:18:20;;;;;;;10.20;3.73;;;;;;;14.20;61.11;98720.38;5003072;28;20241;-62
2023/06/01 02:20:47;;;;;;;5.83;3.50;;;;;;;14.32;60.50;98716.38;4993469;28;20790;-62
2023/06/01 02:23:14;;;;;;;6.50;3.53;;;;;;;14.46;60.31;98708.75;4995922;28;20229;-62
2023/06/01 02:25:41;;;;;;;6.23;3.73;;;;;;;14.55;60.22;98706.88;4995286;28;20332;-62
2023/06/01 02:28:10;;;;;;;7.53;3.73;;;;;;;14.58;59.18;98707.38;4999948;28;20315;-62
2023/06/01 02:30:37;;;;;;;11.40;4.60;;;;;;;14.63;59.37;98706.81;4996934;28;20944;-62
2023/06/01 02:33:03;;;;;;;8.57;4.03;;;;;;;14.60;59.76;98709.81;4996909;28;20236;-62
2023/06/01 02:35:31;;;;;;;5.33;3.43;;;;;;;14.55;59.39;98706.88;5009976;28;20229;-62
2023/06/01 02:37:58;;;;;;;6.43;3.50;;;;;;;14.50;61.88;98703.97;4993782;28;20257;-62
2023/06/01 02:40:25;;;;;;;7.33;4.27;;;;;;;14.35;62.58;98717.84;4985831;28;20229;-62
2023/06/01 02:42:52;;;;;;;6.53;3.60;;;;;;;14.14;63.00;98711.41;5014087;28;20674;-62
2023/06/01 02:45:19;;;;;;;5.90;3.50;;;;;;;14.02;64.59;98710.16;4996817;28;20224;-62
2023/06/01 02:47:46;;;;;;;8.30;3.80;;;;;;;13.83;64.20;98711.34;4995749;28;20225;-62
2023/06/01 02:50:13;;;;;;;6.17;3.77;;;;;;;13.76;64.56;98721.72;4998343;28;20794;-62
2023/06/01 02:52:45;;;;;;;8.07;4.00;;;;;;;13.59;65.44;98718.34;4992216;28;21657;-62
2023/06/01 02:55:12;;;;;;;6.17;3.33;;;;;;;13.49;65.56;98715.88;4992986;28;20235;-62
2023/06/01 02:57:58;;;;;;;6.27;3.83;;;;;;;13.30;66.69;98719.66;5000819;28;20576;-62
2023/06/01 03:00:27;;;;;;;6.63;3.80;;;;;;;13.25;68.41;98724.59;5010381;28;20230;-62
2023/06/01 03:02:53;;;;;;;10.43;3.80;;;;;;;13.12;68.82;98718.03;5001923;28;20241;-62
2023/06/01 03:05:21;;;;;;;9.67;3.77;;;;;;;13.01;69.62;98721.00;4993584;28;20293;-62
2023/06/01 03:07:57;;;;;;;6.83;4.67;;;;;;;12.89;70.65;98717.06;4994438;28;20686;-62
2023/06/01 03:10:26;;;;;;;8.07;4.03;;;;;;;12.78;71.17;98715.59;4993917;28;20803;-62
2023/06/01 03:12:59;;;;;;;8.23;4.27;;;;;;;12.68;73.05;98715.75;5014172;28;20632;-62
2023/06/01 03:15:27;;;;;;;7.10;4.27;;;;;;;12.54;73.32;98718.03;4990199;28;20232;-62
2023/06/01 03:17:53;;;;;;;8.17;3.73;;;;;;;12.43;74.02;98707.84;4995592;28;20659;-63
2023/06/01 03:20:20;;;;;;;7.23;3.73;;;;;;;12.37;75.28;98706.69;5001037;28;20689;-63
2023/06/01 03:22:47;;;;;;;9.80;3.93;;;;;;;12.30;74.59;98715.34;4991352;28;20344;-63
2023/06/01 03:25:16;;;;;;;6.97;4.17;;;;;;;12.24;74.38;98711.56;4986973;28;20242;-63
2023/06/01 03:27:43;;;;;;;9.63;4.20;;;;;;;12.30;75.47;98715.34;4994406;28;20230;-63
2023/06/01 03:32:52;;;;;;;9.90;4.10;;;;;;;12.25;75.35;98710.59;5034943;23;20262;-63
2023/06/01 03:35:19;;;;;;;8.57;4.17;;;;;;;12.27;74.98;98707.81;4961504;28;20255;-62
2023/06/01 03:37:46;;;;;;;5.20;3.77;;;;;;;12.32;76.08;98719.44;4958375;28;20288;-62
2023/06/01 03:40:17;;;;;;;6.23;4.20;;;;;;;12.28;76.78;98712.88;4961663;28;20229;-62
2023/06/01 03:42:44;;;;;;;7.03;4.20;;;;;;;12.25;76.33;98714.03;4928230;28;20242;-62
2023/06/01 03:45:13;;;;;;;9.13;4.10;;;;;;;12.28;75.63;98722.53;4915158;29;20245;-63
2023/06/01 03:47:40;;;;;;;10.37;4.60;;;;;;;12.31;76.62;98728.25;4929464;29;20245;-62
2023/06/01 03:50:09;;;;;;;6.20;3.77;;;;;;;12.33;77.03;98728.13;4913064;29;20225;-62
2023/06/01 03:52:36;;;;;;;7.77;4.30;;;;;;;12.37;76.28;98724.22;4929222;28;20234;-62
2023/06/01 03:55:08;;;;;;;6.60;4.03;;;;;;;12.39;76.81;98723.06;4930222;28;20240;-62
2023/06/01 03:58:04;;;;;;;7.10;4.10;;;;;;;12.45;76.31;98731.25;4912004;29;20308;-62
2023/06/01 04:00:32;;;;;;;8.47;4.20;;;;;;;12.46;76.73;98732.88;4927900;28;20236;-62
2023/06/01 04:03:02;;;;;;;11.10;4.30;;;;;;;12.46;76.55;98728.47;4932439;28;20241;-62
2023/06/01 04:05:29;;;;;;;10.47;4.20;;;;;;;12.48;76.21;98731.75;4928314;28;20245;-62
2023/06/01 04:07:56;;;;;;;7.13;3.90;;;;;;;12.48;76.36;98731.75;4914258;29;20341;-62
2023/06/01 04:10:23;;;;;;;10.13;4.80;;;;;;;12.48;75.52;98729.16;4922938;28;20622;-62
2023/06/01 04:12:50;;;;;;;5.73;4.00;;;;;;;12.50;76.83;98740.28;4912863;28;20236;-62
2023/06/01 04:15:21;;;;;;;10.40;4.83;;;;;;;12.52;77.34;98743.56;4915141;29;20256;-62
2023/06/01 04:17:48;;;;;;;10.73;4.33;;;;;;;12.52;78.71;98735.69;4931546;28;20237;-62
2023/06/01 04:20:16;;;;;;;6.87;4.30;;;;;;;12.54;78.66;98735.53;4916193;29;20733;-62
2023/06/01 04:22:45;;;;;;;8.70;4.23;;;;;;;12.60;77.09;98739.31;4931647;28;20707;-62
2023/06/01 04:25:16;;;;;;;9.83;4.40;;;;;;;12.63;77.16;98741.63;4935182;28;20242;-62
2023/06/01 04:27:45;;;;;;;7.33;4.03;;;;;;;12.67;79.38;98743.72;4931047;28;20453;-62
2023/06/01 04:30:13;;;;;;;8.13;4.68;;;;;;;12.68;79.19;98748.00;4929302;28;20454;-62
2023/06/01 04:32:43;;;;;;;10.73;4.47;;;;;;;12.76;78.24;98748.97;4933527;28;20571;-62
2023/06/01 04:35:11;;;;;;;6.50;4.20;;;;;;;12.78;78.81;98742.59;4921555;29;20237;-62
2023/06/01 04:37:40;;;;;;;8.60;4.47;;;;;;;12.81;79.55;98744.06;4914605;29;20249;-62
2023/06/01 04:40:09;;;;;;;6.33;4.20;;;;;;;12.85;80.17;98750.63;4934948;28;20231;-62
2023/06/01 04:42:40;;;;;;;8.40;4.77;;;;;;;12.89;79.44;98751.13;4918621;28;20291;-62
2023/06/01 04:45:09;;;;;;;8.07;4.53;;;;;;;12.95;79.75;98755.72;4915996;29;20635;-62
2023/06/01 04:47:37;;;;;;;7.63;4.30;;;;;;;12.98;78.68;98758.00;4932976;28;20238;-62
2023/06/01 04:50:08;;;;;;;9.33;4.40;;;;;;;13.03;79.20;98755.72;4917372;29;20248;-62
2023/06/01 04:52:35;;;;;;;7.17;4.67;;;;;;;13.07;79.80;98757.03;4926209;28;20244;-62
2023/06/01 04:55:01;;;;;;;8.07;4.90;;;;;;;13.09;81.07;98759.50;4922784;29;20237;-63
2023/06/01 04:57:28;;;;;;;7.77;4.10;;;;;;;13.14;81.17;98758.00;4913962;28;20261;-63
2023/06/01 04:59:56;;;;;;;10.37;5.57;;;;;;;13.21;79.62;98762.59;4917996;29;20301;-63
2023/06/01 05:02:24;;;;;;;11.20;4.57;;;;;;;13.28;81.90;98760.94;4932105;29;20232;-62
2023/06/01 05:04:51;;;;;;;9.00;4.57;;;;;;;13.33;81.23;98761.28;4928573;28;20683;-62
2023/06/01 05:07:21;;;;;;;9.60;5.00;;;;;;;13.35;81.19;98761.09;4932492;28;20257;-62
2023/06/01 05:09:47;;;;;;;9.23;4.43;;;;;;;13.39;80.57;98767.66;4928951;29;20776;-63
2023/06/01 05:12:14;;;;;;;9.47;5.00;;;;;;;13.46;80.47;98770.47;4916816;29;20254;-63
2023/06/01 05:14:41;;;;;;;5.97;4.20;;;;;;;13.48;79.86;98760.63;4931533;28;20273;-63
2023/06/01 05:17:07;;;;;;;8.17;4.63;;;;;;;13.53;79.94;98771.44;4914096;29;20239;-62
2023/06/01 05:19:59;;;;;;;14.53;4.30;;;;;;;13.57;81.06;98768.31;4917008;28;20237;-62
2023/06/01 05:22:27;;;;;;;10.73;5.00;;;;;;;13.58;81.33;98766.53;4910901;28;20645;-63
2023/06/01 05:24:54;;;;;;;10.03;4.50;;;;;;;13.63;80.40;98774.72;4916943;28;20342;-63
2023/06/01 05:27:20;;;;;;;8.07;4.20;;;;;;;13.63;80.83;98777.34;4930436;28;20247;-62
2023/06/01 05:29:47;;;;;;;11.47;5.17;;;;;;;13.68;80.84;98772.41;4929832;28;20691;-62
2023/06/01 05:32:14;;;;;;;8.37;4.93;;;;;;;13.73;80.99;98774.53;4913605;29;21121;-62
2023/06/01 05:34:41;;;;;;;7.33;4.80;;;;;;;13.80;81.13;98770.25;4913237;28;20237;-62
2023/06/01 05:37:07;;;;;;;6.33;4.70;;;;;;;13.89;80.60;98771.03;4914167;29;20233;-62
2023/06/01 05:40:00;;;;;;;7.03;4.87;;;;;;;13.95;81.14;98772.16;4916021;28;20578;-62
2023/06/01 05:42:27;;;;;;;8.40;5.40;;;;;;;14.05;80.10;98777.22;4913376;29;20316;-63
2023/06/01 05:44:54;;;;;;;10.10;5.43;;;;;;;14.20;80.20;98783.38;4914009;29;20233;-63
2023/06/01 05:47:20;;;;;;;7.80;5.20;;;;;;;14.41;79.47;98774.91;4916315;28;20234;-63
2023/06/01 05:49:47;;;;;;;10.10;5.37;;;;;;;14.63;77.92;98774.31;4929128;28;20591;-63
2023/06/01 05:52:16;;;;;;;10.57;4.70;;;;;;;14.89;75.87;98772.19;4918391;29;20246;-63
2023/06/01 05:54:43;;;;;;;7.73;4.70;;;;;;;15.08;75.11;98771.91;4913980;28;20231;-63
2023/06/01 05:57:11;;;;;;;10.13;4.77;;;;;;;15.25;74.99;98773.41;4915344;29;20655;-63
2023/06/01 05:59:42;;;;;;;11.20;5.00;;;;;;;15.46;72.23;98772.72;4923774;28;20235;-63
2023/06/01 06:02:09;;;;;;;8.27;5.03;;;;;;;15.63;72.44;98767.31;4930606;29;20688;-63
2023/06/01 06:04:41;;;;;;;9.00;4.80;;;;;;;15.85;72.45;98776.13;4914642;28;20324;-63
2023/06/01 06:07:07;;;;;;;7.47;4.60;;;;;;;16.02;70.41;98771.50;4912410;29;20657;-63
2023/06/01 06:09:59;;;;;;;12.50;4.70;;;;;;;16.25;70.12;98772.41;4915343;28;20562;-63
2023/06/01 06:12:27;;;;;;;8.67;4.77;;;;;;;16.42;69.29;98776.47;4912206;29;20232;-63
2023/06/01 06:14:54;;;;;;;8.80;4.53;;;;;;;16.55;69.07;98775.78;4918729;28;20240;-63
2023/06/01 06:17:21;;;;;;;7.83;5.00;;;;;;;16.74;67.93;98773.56;4918846;29;20221;-63
2023/06/01 06:19:49;;;;;;;7.17;4.53;;;;;;;16.86;67.82;98776.50;4916030;28;20249;-63
2023/06/01 06:22:16;;;;;;;8.07;4.57;;;;;;;17.02;67.99;98784.19;4917561;29;20309;-63
2023/06/01 06:24:42;;;;;;;6.97;4.80;;;;;;;17.17;66.75;98775.41;4914744;28;20308;-63
2023/06/01 06:27:10;;;;;;;5.93;4.23;;;;;;;17.38;65.96;98778.03;4920527;29;20263;-63
2023/06/01 06:29:42;;;;;;;9.13;4.67;;;;;;;17.51;65.30;98784.38;4913835;28;20244;-63
2023/06/01 06:32:09;;;;;;;8.50;3.97;;;;;;;17.57;60.67;98788.88;4917485;28;20296;-63
2023/06/01 06:34:41;;;;;;;8.13;4.00;;;;;;;17.54;58.74;98790.09;4916981;28;20596;-63
2023/06/01 06:37:08;;;;;;;7.63;4.10;;;;;;;17.59;59.62;98794.00;4920828;28;20230;-63
2023/06/01 06:39:41;;;;;;;7.83;4.00;;;;;;;17.65;60.54;98791.38;4914015;28;20247;-63
2023/06/01 06:42:08;;;;;;;7.30;3.90;;;;;;;17.84;58.84;98786.44;4912226;28;20241;-63
2023/06/01 06:44:42;;;;;;;8.57;4.07;;;;;;;17.98;58.91;98800.53;4915977;28;20237;-63
2023/06/01 06:47:09;;;;;;;5.77;3.40;;;;;;;18.11;57.74;98802.47;4913966;28;20259;-63
2023/06/01 06:49:41;;;;;;;7.33;4.27;;;;;;;18.17;58.12;98799.03;4912438;28;20222;-64
2023/06/01 06:52:09;;;;;;;8.53;4.57;;;;;;;18.25;56.97;98801.50;4914601;28;20243;-64
2023/06/01 06:54:41;;;;;;;6.10;3.83;;;;;;;18.46;56.97;98809.50;4914447;28;20239;-64
2023/06/01 06:57:08;;;;;;;5.97;3.37;;;;;;;18.47;57.92;98804.03;4919827;29;20233;-64
2023/06/01 06:59:42;;;;;;;8.43;4.13;;;;;;;18.55;59.78;98803.03;4915183;28;20231;-64
2023/06/01 07:02:09;;;;;;;7.80;3.60;;;;;;;18.68;56.29;98800.44;4912459;28;20242;-64
2023/06/01 07:04:41;;;;;;;7.53;3.73;;;;;;;18.73;58.77;98805.94;4914125;28;20233;-64
2023/06/01 07:07:07;;;;;;;6.40;4.00;;;;;;;18.86;60.08;98813.09;4917926;28;20263;-64
2023/06/01 07:09:59;;;;;;;6.60;3.40;;;;;;;18.98;56.40;98812.53;4913588;28;20254;-64
2023/06/01 07:12:26;;;;;;;12.27;3.80;;;;;;;18.93;56.10;98807.81;4908958;28;20723;-64
2023/06/01 07:14:54;;;;;;;9.53;3.70;;;;;;;18.92;55.20;98819.41;4916074;28;20261;-64
2023/06/01 07:17:21;;;;;;;6.93;3.50;;;;;;;19.00;55.19;98813.16;4915769;28;20239;-64
2023/06/01 07:19:47;;;;;;;5.20;3.50;;;;;;;19.02;54.68;98817.22;4914819;28;20252;-64
2023/06/01 07:22:15;;;;;;;6.33;3.33;;;;;;;19.18;55.08;98821.31;4918247;28;20753;-64
2023/06/01 07:24:41;;;;;;;9.53;3.77;;;;;;;19.12;54.70;98814.19;4912722;28;20579;-64
2023/06/01 07:27:08;;;;;;;7.30;4.30;;;;;;;19.09;54.85;98824.34;4931162;28;20235;-64
2023/06/01 07:29:44;;;;;;;5.47;3.73;;;;;;;19.13;55.88;98823.75;4911436;28;20258;-64
2023/06/01 07:32:12;;;;;;;9.13;3.93;;;;;;;19.15;55.41;98824.38;4918011;28;20230;-64
2023/06/01 07:34:41;;;;;;;6.13;3.50;;;;;;;19.24;55.38;98822.31;4911177;28;20235;-64
2023/06/01 07:37:07;;;;;;;9.50;3.80;;;;;;;19.42;55.38;98819.09;4915725;28;20237;-64
2023/06/01 07:39:59;;;;;;;8.87;3.87;;;;;;;19.45;54.96;98823.97;4916531;28;20719;-64
2023/06/01 07:42:26;;;;;;;6.20;3.57;;;;;;;19.69;54.36;98819.06;4914831;28;20238;-64
2023/06/01 07:44:52;;;;;;;7.50;3.70;;;;;;;19.76;53.74;98821.72;4917843;28;20237;-64
2023/06/01 07:47:21;;;;;;;9.23;3.43;;;;;;;19.80;53.43;98822.94;4917524;29;20251;-64
2023/06/01 07:49:47;;;;;;;6.83;3.37;;;;;;;19.70;54.11;98823.31;4913888;28;20228;-64
2023/06/01 07:52:14;;;;;;;7.63;3.30;;;;;;;19.88;53.57;98825.34;4931776;29;20246;-64
2023/06/01 07:54:41;;;;;;;7.27;3.13;;;;;;;20.00;53.17;98817.59;4914755;28;20254;-64
2023/06/01 07:57:07;;;;;;;7.20;3.60;;;;;;;20.00;53.33;98814.16;4919166;28;20938;-64
2023/06/01 07:59:59;;;;;;;9.67;3.00;;;;;;;20.16;54.10;98804.94;4913264;28;20699;-64
2023/06/01 08:02:27;;;;;;;5.87;3.30;;;;;;;20.38;52.98;98812.59;4915127;28;20602;-64
2023/06/01 08:04:56;;;;;;;7.30;3.73;;;;;;;20.27;53.96;98811.41;4914503;28;20303;-64
2023/06/01 08:07:27;;;;;;;6.37;3.00;;;;;;;20.47;54.01;98809.50;4917370;29;20224;-64
2023/06/01 08:09:54;;;;;;;7.37;3.40;;;;;;;20.63;53.44;98810.88;4909930;28;20235;-64
2023/06/01 08:12:21;;;;;;;9.27;3.50;;;;;;;20.72;52.31;98811.41;4914664;29;20257;-64
2023/06/01 08:14:48;;;;;;;9.17;3.77;;;;;;;20.63;53.27;98808.22;4917450;28;20711;-64
2023/06/01 08:17:15;;;;;;;7.13;3.07;;;;;;;20.70;53.86;98804.69;4918935;28;20244;-64
2023/06/01 08:19:43;;;;;;;6.73;2.90;;;;;;;20.84;51.14;98806.25;4914751;28;20224;-64
2023/06/01 08:22:11;;;;;;;5.37;3.03;;;;;;;20.93;51.32;98806.84;4914736;29;20232;-64
2023/06/01 08:24:41;;;;;;;4.03;3.03;;;;;;;21.03;50.14;98804.53;4913376;28;20233;-64
2023/06/01 08:27:17;;;;;;;7.13;3.13;;;;;;;21.19;52.86;98799.72;4919621;28;20233;-64
2023/06/01 08:29:45;;;;;;;6.27;3.17;;;;;;;21.32;52.65;98799.59;4912176;28;20235;-64
2023/06/01 08:32:12;;;;;;;8.60;3.00;;;;;;;21.49;50.47;98791.09;4917090;28;20296;-64
2023/06/01 08:34:41;;;;;;;5.67;2.90;;;;;;;21.29;51.25;98799.22;4913493;28;20222;-64
2023/06/01 08:37:09;;;;;;;7.03;3.03;;;;;;;21.20;50.65;98798.69;4915650;28;20610;-64
2023/06/01 08:39:41;;;;;;;6.23;3.13;;;;;;;21.14;51.01;98792.41;4910697;28;20628;-64
2023/06/01 08:42:12;;;;;;;8.53;3.17;;;;;;;21.14;51.15;98795.06;4917216;28;20243;-64
2023/06/01 08:44:42;;;;;;;9.50;3.57;;;;;;;21.22;50.93;98791.31;4912340;28;20259;-64
2023/06/01 08:47:09;;;;;;;7.67;3.13;;;;;;;21.45;51.15;98795.19;4917951;28;20237;-64
2023/06/01 08:49:42;;;;;;;5.13;2.90;;;;;;;21.55;50.77;98789.41;4915703;28;20578;-64
2023/06/01 08:52:13;;;;;;;7.57;3.40;;;;;;;21.50;50.65;98787.41;4916383;29;20267;-64
2023/06/01 08:54:41;;;;;;;7.43;2.73;;;;;;;21.58;50.11;98787.13;4916264;28;20244;-64
2023/06/01 08:57:08;;;;;;;6.63;3.33;;;;;;;21.85;50.72;98778.91;4920869;28;20648;-64
2023/06/01 08:59:41;;;;;;;5.97;2.93;;;;;;;21.99;50.67;98781.44;4919433;28;20754;-64
2023/06/01 09:02:09;;;;;;;10.57;3.33;;;;;;;22.10;49.86;98780.69;4919022;28;20248;-64
2023/06/01 09:04:44;;;;;;;11.00;3.77;;;;;;;22.34;50.16;98781.63;4915753;28;20225;-64
2023/06/01 09:07:12;;;;;;;7.50;3.37;;;;;;;22.49;49.31;98778.59;4921323;28;20272;-64
2023/06/01 09:09:41;;;;;;;8.07;3.47;;;;;;;22.66;49.76;98778.78;4916776;28;20233;-64
2023/06/01 09:12:25;;;;;;;6.77;3.23;;;;;;;22.79;47.37;98779.63;4920561;29;20293;-64
2023/06/01 09:15:08;;;;;;;8.93;3.30;;;;;;;23.03;44.46;98782.31;4916877;28;20280;-64
2023/06/01 09:17:35;;;;;;;8.13;3.77;;;;;;;23.09;45.19;98784.06;4929115;28;20246;-64
2023/06/01 09:20:02;;;;;;;8.40;3.77;;;;;;;23.17;44.16;98773.09;4919542;28;20313;-64
2023/06/01 09:22:41;;;;;;;6.30;3.50;;;;;;;23.24;44.93;98781.03;4913825;28;20278;-64
2023/06/01 09:25:08;;;;;;;6.77;3.20;;;;;;;23.27;44.60;98772.56;4919045;28;20242;-64
2023/06/01 09:27:44;;;;;;;7.30;3.50;;;;;;;23.34;44.29;98775.09;4915309;28;20231;-64
2023/06/01 09:30:12;;;;;;;7.87;3.50;;;;;;;23.46;44.95;98767.13;4919317;28;20597;-64
2023/06/01 09:32:38;;;;;;;7.10;3.67;;;;;;;23.59;45.61;98764.22;4914993;28;20234;-64
2023/06/01 09:35:07;;;;;;;9.60;3.60;;;;;;;23.70;44.68;98765.25;4919621;28;20231;-64
2023/06/01 09:37:34;;;;;;;5.70;4.00;;;;;;;23.72;41.06;98768.50;4917559;28;20248;-64
2023/06/01 09:40:03;;;;;;;11.80;3.67;;;;;;;23.95;43.06;98764.16;4919083;28;20326;-64
2023/06/01 09:42:33;;;;;;;7.10;4.10;;;;;;;24.02;40.65;98757.69;4912839;28;20233;-64
2023/06/01 09:45:16;;;;;;;12.10;4.27;;;;;;;24.13;39.18;98765.91;4919055;28;20315;-64
2023/06/01 09:47:42;;;;;;;8.30;4.37;;;;;;;24.17;40.77;98765.19;4917742;29;20318;-64
2023/06/01 09:50:10;;;;;;;7.63;3.80;;;;;;;24.25;40.63;98755.19;4924027;28;20234;-64
2023/06/01 09:52:37;;;;;;;7.43;4.30;;;;;;;24.35;40.48;98752.72;4915065;29;20238;-64
2023/06/01 09:55:10;;;;;;;7.53;4.30;;;;;;;24.24;39.15;98757.06;4915829;28;20234;-64
2023/06/01 09:57:36;;;;;;;6.23;4.10;;;;;;;24.05;40.11;98753.72;4913472;28;20276;-64
2023/06/01 10:00:05;;;;;;;8.07;4.27;;;;;;;24.15;40.63;98758.47;4919736;28;20238;-64
2023/06/01 10:02:33;;;;;;;8.17;3.87;;;;;;;24.27;41.48;98745.09;4916222;28;20266;-64
2023/06/01 10:05:01;;;;;;;9.70;4.03;;;;;;;24.33;40.16;98744.13;4921020;28;20806;-64
2023/06/01 10:07:29;;;;;;;10.93;4.37;;;;;;;24.23;40.86;98747.44;4914953;28;20224;-64
2023/06/01 10:09:58;;;;;;;7.40;4.40;;;;;;;24.40;40.37;98747.47;4915927;28;20575;-64
2023/06/01 10:12:28;;;;;;;9.03;4.10;;;;;;;24.19;40.39;98738.28;4917133;29;20243;-64
2023/06/01 10:14:56;;;;;;;12.20;4.17;;;;;;;24.25;40.92;98733.84;4914960;28;20237;-64
2023/06/01 10:17:23;;;;;;;5.27;3.90;;;;;;;24.33;40.49;98733.47;4917819;28;20230;-64
2023/06/01 10:19:50;;;;;;;8.53;4.30;;;;;;;24.27;40.46;98731.75;4911767;28;20334;-64
2023/06/01 10:22:17;;;;;;;7.40;4.10;;;;;;;24.36;39.92;98730.31;4915629;28;20721;-64
2023/06/01 10:24:44;;;;;;;9.67;4.73;;;;;;;24.55;40.36;98732.78;4915466;28;20235;-64
2023/06/01 10:27:19;;;;;;;10.23;4.20;;;;;;;24.58;39.74;98726.97;4916725;28;20244;-64
2023/06/01 10:29:48;;;;;;;7.23;4.67;;;;;;;24.69;40.89;98731.44;4915016;28;20238;-64
2023/06/01 10:32:44;;;;;;;6.53;4.03;;;;;;;24.46;39.09;98727.84;4916318;28;20248;-64
2023/06/01 10:35:30;;;;;;;10.97;4.40;;;;;;;24.62;39.32;98726.25;4914657;28;20234;-64
2023/06/01 10:38:22;;;;;;;6.77;4.73;;;;;;;24.85;39.86;98715.72;4912863;28;20227;-64
2023/06/01 10:40:49;;;;;;;8.40;4.53;;;;;;;24.71;39.61;98732.00;4915621;28;20297;-64
2023/06/01 10:43:42;;;;;;;5.97;4.53;;;;;;;24.71;38.34;98724.00;4915835;28;20705;-64
2023/06/01 10:46:36;;;;;;;11.70;4.80;;;;;;;24.94;39.14;98721.44;4914275;28;20242;-64
2023/06/01 10:49:03;;;;;;;8.70;4.27;;;;;;;25.14;38.94;98734.28;4914293;28;20294;-64
2023/06/01 10:51:30;;;;;;;7.47;4.23;;;;;;;25.06;39.54;98722.97;4916344;28;20240;-64
2023/06/01 10:54:26;;;;;;;8.87;4.70;;;;;;;25.06;38.81;98719.50;4919704;28;20248;-64
2023/06/01 10:57:23;;;;;;;7.80;4.83;;;;;;;25.15;38.07;98722.56;4910807;28;20236;-64
2023/06/01 11:00:15;;;;;;;9.37;4.63;;;;;;;24.67;37.97;98708.69;4913310;28;20907;-64
2023/06/01 11:02:52;;;;;;;7.23;4.07;;;;;;;25.10;38.59;98712.63;4915740;28;20759;-64
2023/06/01 11:05:36;;;;;;;8.17;5.03;;;;;;;25.01;38.31;98719.41;4918708;28;20325;-64
2023/06/01 11:08:03;;;;;;;6.93;4.27;;;;;;;25.12;37.77;98715.03;4913321;28;20319;-64
2023/06/01 11:10:55;;;;;;;8.20;4.30;;;;;;;25.23;38.18;98708.00;4915391;28;20278;-64
2023/06/01 11:13:26;;;;;;;5.27;4.27;;;;;;;25.34;38.82;98704.41;4917720;28;20241;-64
2023/06/01 11:16:30;;;;;;;9.67;4.97;;;;;;;25.43;37.82;98705.63;4914990;28;20236;-64
2023/06/01 11:18:59;;;;;;;9.67;4.93;;;;;;;25.55;38.51;98702.03;4912461;28;20695;-64
2023/06/01 11:21:28;;;;;;;7.97;4.73;;;;;;;25.46;37.37;98699.78;4915035;28;20241;-64
2023/06/01 11:23:57;;;;;;;7.00;4.30;;;;;;;25.31;37.12;98694.22;4919419;28;20340;-64
2023/06/01 11:26:25;;;;;;;10.10;5.23;;;;;;;25.41;36.96;98693.53;4932097;28;20230;-64
2023/06/01 11:28:53;;;;;;;9.67;4.80;;;;;;;25.39;37.74;98690.31;4913562;28;20244;-61
2023/06/01 11:31:20;;;;;;;14.70;4.63;;;;;;;25.50;36.98;98692.09;4917466;28;20234;-61
2023/06/01 11:33:52;;;;;;;4.97;4.23;;;;;;;25.55;36.84;98694.84;4912074;29;20329;-61
2023/06/01 11:36:23;;;;;;;7.93;4.60;;;;;;;25.40;35.77;98681.22;4914724;28;20241;-62
2023/06/01 11:38:50;;;;;;;9.23;4.53;;;;;;;25.67;36.91;98680.53;4911122;28;20237;-61
2023/06/01 11:41:17;;;;;;;9.83;4.33;;;;;;;25.90;36.11;98674.13;4931106;28;20246;-63
2023/06/01 11:43:44;;;;;;;8.20;4.83;;;;;;;25.94;35.69;98691.28;4908395;28;20248;-63
2023/06/01 11:46:11;;;;;;;12.10;4.63;;;;;;;25.89;35.36;98680.53;4919645;28;20328;-63
2023/06/01 11:48:37;;;;;;;8.10;4.53;;;;;;;25.90;35.96;98677.63;4913735;28;20768;-64
2023/06/01 11:51:05;;;;;;;8.47;4.43;;;;;;;26.00;35.24;98678.75;4918558;29;20233;-63